sensor_id;sensor_type;location;lat;lon;timestamp;P1;P2;P0
72908;PMS5003;61051;62.624;17.950;2023-08-08T00:02:26;47;46;
72908;PMS5003;61051;62.624;17.950;2023-08-08T00:04:54;53;46;
72908;PMS5003;61051;62.624;17.950;2023-08-08T00:07:23;49;43;
72908;PMS5003;61051;62.624;17.950;2023-08-08T00:09:52;57;47;
72908;PMS5003;61051;62.624;17.950;2023-08-08T00:12:21;45;43;
72908;PMS5003;61051;62.624;17.950;2023-08-08T00:14:51;49;42;
72908;PMS5003;61051;62.624;17.950;2023-08-08T00:17:20;44;42;
72908;PMS5003;61051;62.624;17.950;2023-08-08T00:19:48;53;46;
72908;PMS5003;61051;62.624;17.950;2023-08-08T00:22:16;45;44;
72908;PMS5003;61051;62.624;17.950;2023-08-08T00:24:44;55;47;
72908;PMS5003;61051;62.624;17.950;2023-08-08T00:27:14;57;50;
72908;PMS5003;61051;62.624;17.950;2023-08-08T00:29:44;50;42;
72908;PMS5003;61051;62.624;17.950;2023-08-08T00:32:12;47;47;
72908;PMS5003;61051;62.624;17.950;2023-08-08T00:34:42;55;48;
72908;PMS5003;61051;62.624;17.950;2023-08-08T00:37:10;49;46;
72908;PMS5003;61051;62.624;17.950;2023-08-08T00:39:38;45;42;
72908;PMS5003;61051;62.624;17.950;2023-08-08T00:42:08;58;50;
72908;PMS5003;61051;62.624;17.950;2023-08-08T00:44:37;54;48;
72908;PMS5003;61051;62.624;17.950;2023-08-08T00:47:07;47;46;
72908;PMS5003;61051;62.624;17.950;2023-08-08T00:49:38;51;41;
72908;PMS5003;61051;62.624;17.950;2023-08-08T00:52:07;54;49;
72908;PMS5003;61051;62.624;17.950;2023-08-08T00:54:36;44;38;
72908;PMS5003;61051;62.624;17.950;2023-08-08T00:57:05;50;44;
72908;PMS5003;61051;62.624;17.950;2023-08-08T00:59:34;53;42;
72908;PMS5003;61051;62.624;17.950;2023-08-08T01:02:02;52;45;
72908;PMS5003;61051;62.624;17.950;2023-08-08T01:04:31;47;41;
72908;PMS5003;61051;62.624;17.950;2023-08-08T01:07:01;44;42;
72908;PMS5003;61051;62.624;17.950;2023-08-08T01:09:38;48;41;
72908;PMS5003;61051;62.624;17.950;2023-08-08T01:12:12;43;43;
72908;PMS5003;61051;62.624;17.950;2023-08-08T01:14:43;51;45;
72908;PMS5003;61051;62.624;17.950;2023-08-08T01:17:12;48;41;
72908;PMS5003;61051;62.624;17.950;2023-08-08T01:19:43;47;42;
72908;PMS5003;61051;62.624;17.950;2023-08-08T01:22:19;50;42;
72908;PMS5003;61051;62.624;17.950;2023-08-08T01:24:53;48;43;
72908;PMS5003;61051;62.624;17.950;2023-08-08T01:27:23;53;42;
72908;PMS5003;61051;62.624;17.950;2023-08-08T01:29:52;43;39;
72908;PMS5003;61051;62.624;17.950;2023-08-08T01:32:21;47;42;
72908;PMS5003;61051;62.624;17.950;2023-08-08T01:34:49;48;41;
72908;PMS5003;61051;62.624;17.950;2023-08-08T01:37:19;47;40;
72908;PMS5003;61051;62.624;17.950;2023-08-08T01:39:53;47;41;
72908;PMS5003;61051;62.624;17.950;2023-08-08T01:42:25;44;37;
72908;PMS5003;61051;62.624;17.950;2023-08-08T01:44:55;44;39;
72908;PMS5003;61051;62.624;17.950;2023-08-08T01:47:25;39;36;
72908;PMS5003;61051;62.624;17.950;2023-08-08T01:49:53;43;35;
72908;PMS5003;61051;62.624;17.950;2023-08-08T01:52:22;38;35;
72908;PMS5003;61051;62.624;17.950;2023-08-08T01:54:52;47;40;
72908;PMS5003;61051;62.624;17.950;2023-08-08T01:57:20;41;36;
72908;PMS5003;61051;62.624;17.950;2023-08-08T01:59:48;41;35;
72908;PMS5003;61051;62.624;17.950;2023-08-08T02:02:18;47;37;
72908;PMS5003;61051;62.624;17.950;2023-08-08T02:04:46;38;37;
72908;PMS5003;61051;62.624;17.950;2023-08-08T02:07:15;38;35;
72908;PMS5003;61051;62.624;17.950;2023-08-08T02:09:43;42;38;
72908;PMS5003;61051;62.624;17.950;2023-08-08T02:12:11;48;40;
72908;PMS5003;61051;62.624;17.950;2023-08-08T02:14:39;46;36;
72908;PMS5003;61051;62.624;17.950;2023-08-08T02:17:08;37;33;
72908;PMS5003;61051;62.624;17.950;2023-08-08T02:19:37;35;35;
72908;PMS5003;61051;62.624;17.950;2023-08-08T02:22:06;44;38;
72908;PMS5003;61051;62.624;17.950;2023-08-08T02:24:36;40;39;
72908;PMS5003;61051;62.624;17.950;2023-08-08T02:27:04;33;33;
72908;PMS5003;61051;62.624;17.950;2023-08-08T02:29:33;39;33;
72908;PMS5003;61051;62.624;17.950;2023-08-08T02:32:02;40;33;
72908;PMS5003;61051;62.624;17.950;2023-08-08T02:34:31;32;32;
72908;PMS5003;61051;62.624;17.950;2023-08-08T02:36:59;37;32;
72908;PMS5003;61051;62.624;17.950;2023-08-08T02:39:28;39;35;
72908;PMS5003;61051;62.624;17.950;2023-08-08T02:41:57;45;39;
72908;PMS5003;61051;62.624;17.950;2023-08-08T02:44:27;37;34;
72908;PMS5003;61051;62.624;17.950;2023-08-08T02:46:55;36;31;
72908;PMS5003;61051;62.624;17.950;2023-08-08T02:49:24;38;36;
72908;PMS5003;61051;62.624;17.950;2023-08-08T02:51:54;41;36;
72908;PMS5003;61051;62.624;17.950;2023-08-08T02:54:22;44;42;
72908;PMS5003;61051;62.624;17.950;2023-08-08T02:56:51;41;34;
72908;PMS5003;61051;62.624;17.950;2023-08-08T02:59:19;47;38;
72908;PMS5003;61051;62.624;17.950;2023-08-08T03:01:48;39;36;
72908;PMS5003;61051;62.624;17.950;2023-08-08T03:04:16;31;31;
72908;PMS5003;61051;62.624;17.950;2023-08-08T03:06:46;40;36;
72908;PMS5003;61051;62.624;17.950;2023-08-08T03:09:15;47;38;
72908;PMS5003;61051;62.624;17.950;2023-08-08T03:11:43;45;39;
72908;PMS5003;61051;62.624;17.950;2023-08-08T03:14:11;34;32;
72908;PMS5003;61051;62.624;17.950;2023-08-08T03:16:40;41;31;
72908;PMS5003;61051;62.624;17.950;2023-08-08T03:19:09;37;35;
72908;PMS5003;61051;62.624;17.950;2023-08-08T03:21:37;38;32;
72908;PMS5003;61051;62.624;17.950;2023-08-08T03:24:07;40;33;
72908;PMS5003;61051;62.624;17.950;2023-08-08T03:26:37;35;34;
72908;PMS5003;61051;62.624;17.950;2023-08-08T03:29:05;34;33;
72908;PMS5003;61051;62.624;17.950;2023-08-08T03:31:35;37;33;
72908;PMS5003;61051;62.624;17.950;2023-08-08T03:34:03;40;34;
72908;PMS5003;61051;62.624;17.950;2023-08-08T03:36:32;33;28;
72908;PMS5003;61051;62.624;17.950;2023-08-08T03:39:01;39;33;
72908;PMS5003;61051;62.624;17.950;2023-08-08T03:41:30;39;31;
72908;PMS5003;61051;62.624;17.950;2023-08-08T03:43:59;31;31;
72908;PMS5003;61051;62.624;17.950;2023-08-08T03:46:28;29;29;
72908;PMS5003;61051;62.624;17.950;2023-08-08T03:48:57;39;31;
72908;PMS5003;61051;62.624;17.950;2023-08-08T03:51:26;35;32;
72908;PMS5003;61051;62.624;17.950;2023-08-08T03:53:54;38;32;
72908;PMS5003;61051;62.624;17.950;2023-08-08T03:56:23;41;32;
72908;PMS5003;61051;62.624;17.950;2023-08-08T03:58:52;36;27;
72908;PMS5003;61051;62.624;17.950;2023-08-08T04:03:20;29;29;
72908;PMS5003;61051;62.624;17.950;2023-08-08T04:05:48;40;32;
72908;PMS5003;61051;62.624;17.950;2023-08-08T04:08:17;34;29;
72908;PMS5003;61051;62.624;17.950;2023-08-08T04:10:46;39;35;
72908;PMS5003;61051;62.624;17.950;2023-08-08T04:13:15;37;30;
72908;PMS5003;61051;62.624;17.950;2023-08-08T04:15:43;37;32;
72908;PMS5003;61051;62.624;17.950;2023-08-08T04:18:12;37;31;
72908;PMS5003;61051;62.624;17.950;2023-08-08T04:20:41;36;28;
72908;PMS5003;61051;62.624;17.950;2023-08-08T04:23:10;35;29;
72908;PMS5003;61051;62.624;17.950;2023-08-08T04:25:39;32;31;
72908;PMS5003;61051;62.624;17.950;2023-08-08T04:28:08;33;31;
72908;PMS5003;61051;62.624;17.950;2023-08-08T04:30:37;30;28;
72908;PMS5003;61051;62.624;17.950;2023-08-08T04:33:06;30;29;
72908;PMS5003;61051;62.624;17.950;2023-08-08T04:35:35;36;28;
72908;PMS5003;61051;62.624;17.950;2023-08-08T04:38:04;30;28;
72908;PMS5003;61051;62.624;17.950;2023-08-08T04:40:32;30;28;
72908;PMS5003;61051;62.624;17.950;2023-08-08T04:43:01;27;27;
72908;PMS5003;61051;62.624;17.950;2023-08-08T04:45:30;35;31;
72908;PMS5003;61051;62.624;17.950;2023-08-08T04:47:59;40;32;
72908;PMS5003;61051;62.624;17.950;2023-08-08T04:50:28;29;29;
72908;PMS5003;61051;62.624;17.950;2023-08-08T04:52:56;43;36;
72908;PMS5003;61051;62.624;17.950;2023-08-08T04:55:25;38;29;
72908;PMS5003;61051;62.624;17.950;2023-08-08T04:57:54;32;30;
72908;PMS5003;61051;62.624;17.950;2023-08-08T05:00:23;41;30;
72908;PMS5003;61051;62.624;17.950;2023-08-08T05:02:54;33;30;
72908;PMS5003;61051;62.624;17.950;2023-08-08T05:05:22;29;26;
72908;PMS5003;61051;62.624;17.950;2023-08-08T05:07:50;33;32;
72908;PMS5003;61051;62.624;17.950;2023-08-08T05:10:19;37;29;
72908;PMS5003;61051;62.624;17.950;2023-08-08T05:12:48;32;32;
72908;PMS5003;61051;62.624;17.950;2023-08-08T05:15:16;31;28;
72908;PMS5003;61051;62.624;17.950;2023-08-08T05:17:45;34;30;
72908;PMS5003;61051;62.624;17.950;2023-08-08T05:20:14;34;30;
72908;PMS5003;61051;62.624;17.950;2023-08-08T05:22:43;35;28;
72908;PMS5003;61051;62.624;17.950;2023-08-08T05:25:12;38;28;
72908;PMS5003;61051;62.624;17.950;2023-08-08T05:27:40;34;29;
72908;PMS5003;61051;62.624;17.950;2023-08-08T05:30:09;35;30;
72908;PMS5003;61051;62.624;17.950;2023-08-08T05:32:38;28;26;
72908;PMS5003;61051;62.624;17.950;2023-08-08T05:35:08;42;31;
72908;PMS5003;61051;62.624;17.950;2023-08-08T05:37:37;35;30;
72908;PMS5003;61051;62.624;17.950;2023-08-08T05:40:05;28;26;
72908;PMS5003;61051;62.624;17.950;2023-08-08T05:42:35;33;31;
72908;PMS5003;61051;62.624;17.950;2023-08-08T05:45:05;33;30;
72908;PMS5003;61051;62.624;17.950;2023-08-08T05:47:35;33;31;
72908;PMS5003;61051;62.624;17.950;2023-08-08T05:50:04;34;31;
72908;PMS5003;61051;62.624;17.950;2023-08-08T05:52:33;33;32;
72908;PMS5003;61051;62.624;17.950;2023-08-08T05:55:03;37;32;
72908;PMS5003;61051;62.624;17.950;2023-08-08T05:57:33;30;30;
72908;PMS5003;61051;62.624;17.950;2023-08-08T06:00:01;34;34;
72908;PMS5003;61051;62.624;17.950;2023-08-08T06:02:31;31;31;
72908;PMS5003;61051;62.624;17.950;2023-08-08T06:05:00;32;30;
72908;PMS5003;61051;62.624;17.950;2023-08-08T06:07:31;30;29;
72908;PMS5003;61051;62.624;17.950;2023-08-08T06:10:00;35;32;
72908;PMS5003;61051;62.624;17.950;2023-08-08T06:12:29;27;26;
72908;PMS5003;61051;62.624;17.950;2023-08-08T06:14:57;32;29;
72908;PMS5003;61051;62.624;17.950;2023-08-08T06:17:26;30;28;
72908;PMS5003;61051;62.624;17.950;2023-08-08T06:19:56;27;26;
72908;PMS5003;61051;62.624;17.950;2023-08-08T06:22:24;31;26;
72908;PMS5003;61051;62.624;17.950;2023-08-08T06:24:53;38;30;
72908;PMS5003;61051;62.624;17.950;2023-08-08T06:27:21;38;30;
72908;PMS5003;61051;62.624;17.950;2023-08-08T06:29:50;29;29;
72908;PMS5003;61051;62.624;17.950;2023-08-08T06:32:18;39;29;
72908;PMS5003;61051;62.624;17.950;2023-08-08T06:34:46;33;26;
72908;PMS5003;61051;62.624;17.950;2023-08-08T06:37:14;30;29;
72908;PMS5003;61051;62.624;17.950;2023-08-08T06:39:42;33;28;
72908;PMS5003;61051;62.624;17.950;2023-08-08T06:42:10;39;31;
72908;PMS5003;61051;62.624;17.950;2023-08-08T06:44:41;30;28;
72908;PMS5003;61051;62.624;17.950;2023-08-08T06:47:11;28;26;
72908;PMS5003;61051;62.624;17.950;2023-08-08T06:49:40;35;30;
72908;PMS5003;61051;62.624;17.950;2023-08-08T06:52:10;34;27;
72908;PMS5003;61051;62.624;17.950;2023-08-08T06:54:38;36;30;
72908;PMS5003;61051;62.624;17.950;2023-08-08T06:57:07;30;29;
72908;PMS5003;61051;62.624;17.950;2023-08-08T06:59:35;29;27;
72908;PMS5003;61051;62.624;17.950;2023-08-08T07:02:03;38;28;
72908;PMS5003;61051;62.624;17.950;2023-08-08T07:04:32;30;28;
72908;PMS5003;61051;62.624;17.950;2023-08-08T07:07:02;31;27;
72908;PMS5003;61051;62.624;17.950;2023-08-08T07:09:30;33;27;
72908;PMS5003;61051;62.624;17.950;2023-08-08T07:11:58;31;29;
72908;PMS5003;61051;62.624;17.950;2023-08-08T07:14:27;33;27;
72908;PMS5003;61051;62.624;17.950;2023-08-08T07:16:55;27;27;
72908;PMS5003;61051;62.624;17.950;2023-08-08T07:19:23;40;33;
72908;PMS5003;61051;62.624;17.950;2023-08-08T07:21:53;31;30;
72908;PMS5003;61051;62.624;17.950;2023-08-08T07:24:21;30;30;
72908;PMS5003;61051;62.624;17.950;2023-08-08T07:26:49;38;32;
72908;PMS5003;61051;62.624;17.950;2023-08-08T07:29:18;31;28;
72908;PMS5003;61051;62.624;17.950;2023-08-08T07:31:47;33;31;
72908;PMS5003;61051;62.624;17.950;2023-08-08T07:34:16;34;29;
72908;PMS5003;61051;62.624;17.950;2023-08-08T07:36:44;42;34;
72908;PMS5003;61051;62.624;17.950;2023-08-08T07:39:12;34;31;
72908;PMS5003;61051;62.624;17.950;2023-08-08T07:41:42;29;29;
72908;PMS5003;61051;62.624;17.950;2023-08-08T07:44:12;33;30;
72908;PMS5003;61051;62.624;17.950;2023-08-08T07:46:40;35;35;
72908;PMS5003;61051;62.624;17.950;2023-08-08T07:49:08;36;31;
72908;PMS5003;61051;62.624;17.950;2023-08-08T07:51:36;39;31;
72908;PMS5003;61051;62.624;17.950;2023-08-08T07:54:04;39;33;
72908;PMS5003;61051;62.624;17.950;2023-08-08T07:56:33;39;31;
72908;PMS5003;61051;62.624;17.950;2023-08-08T07:59:03;40;31;
72908;PMS5003;61051;62.624;17.950;2023-08-08T08:01:31;35;30;
72908;PMS5003;61051;62.624;17.950;2023-08-08T08:03:59;35;30;
72908;PMS5003;61051;62.624;17.950;2023-08-08T08:06:28;28;28;
72908;PMS5003;61051;62.624;17.950;2023-08-08T08:08:56;31;29;
72908;PMS5003;61051;62.624;17.950;2023-08-08T08:11:26;33;32;
72908;PMS5003;61051;62.624;17.950;2023-08-08T08:13:54;34;29;
72908;PMS5003;61051;62.624;17.950;2023-08-08T08:16:22;40;30;
72908;PMS5003;61051;62.624;17.950;2023-08-08T08:18:51;39;34;
72908;PMS5003;61051;62.624;17.950;2023-08-08T08:21:20;37;30;
72908;PMS5003;61051;62.624;17.950;2023-08-08T08:23:49;35;31;
72908;PMS5003;61051;62.624;17.950;2023-08-08T08:26:18;41;32;
72908;PMS5003;61051;62.624;17.950;2023-08-08T08:28:48;35;29;
72908;PMS5003;61051;62.624;17.950;2023-08-08T08:31:16;31;29;
72908;PMS5003;61051;62.624;17.950;2023-08-08T08:33:44;32;32;
72908;PMS5003;61051;62.624;17.950;2023-08-08T08:36:13;32;30;
72908;PMS5003;61051;62.624;17.950;2023-08-08T08:38:44;32;30;
72908;PMS5003;61051;62.624;17.950;2023-08-08T08:41:14;41;30;
72908;PMS5003;61051;62.624;17.950;2023-08-08T08:43:46;35;31;
72908;PMS5003;61051;62.624;17.950;2023-08-08T08:46:18;32;31;
72908;PMS5003;61051;62.624;17.950;2023-08-08T08:48:49;28;27;
72908;PMS5003;61051;62.624;17.950;2023-08-08T08:51:19;33;33;
72908;PMS5003;61051;62.624;17.950;2023-08-08T08:53:47;29;28;
72908;PMS5003;61051;62.624;17.950;2023-08-08T08:56:15;29;28;
72908;PMS5003;61051;62.624;17.950;2023-08-08T08:58:44;36;30;
72908;PMS5003;61051;62.624;17.950;2023-08-08T09:01:12;31;29;
72908;PMS5003;61051;62.624;17.950;2023-08-08T09:03:42;28;28;
72908;PMS5003;61051;62.624;17.950;2023-08-08T09:06:11;32;31;
72908;PMS5003;61051;62.624;17.950;2023-08-08T09:08:40;33;31;
72908;PMS5003;61051;62.624;17.950;2023-08-08T09:11:08;34;32;
72908;PMS5003;61051;62.624;17.950;2023-08-08T09:13:37;31;26;
72908;PMS5003;61051;62.624;17.950;2023-08-08T09:16:06;25;25;
72908;PMS5003;61051;62.624;17.950;2023-08-08T09:18:35;35;32;
72908;PMS5003;61051;62.624;17.950;2023-08-08T09:21:03;37;31;
72908;PMS5003;61051;62.624;17.950;2023-08-08T09:23:32;30;29;
72908;PMS5003;61051;62.624;17.950;2023-08-08T09:26:02;34;31;
72908;PMS5003;61051;62.624;17.950;2023-08-08T09:28:30;31;28;
72908;PMS5003;61051;62.624;17.950;2023-08-08T09:31:00;36;28;
72908;PMS5003;61051;62.624;17.950;2023-08-08T09:33:29;30;28;
72908;PMS5003;61051;62.624;17.950;2023-08-08T09:35:58;28;26;
72908;PMS5003;61051;62.624;17.950;2023-08-08T09:38:28;43;33;
72908;PMS5003;61051;62.624;17.950;2023-08-08T09:40:56;30;25;
72908;PMS5003;61051;62.624;17.950;2023-08-08T09:43:24;34;33;
72908;PMS5003;61051;62.624;17.950;2023-08-08T09:45:53;28;25;
72908;PMS5003;61051;62.624;17.950;2023-08-08T09:48:23;33;31;
72908;PMS5003;61051;62.624;17.950;2023-08-08T09:50:58;32;30;
72908;PMS5003;61051;62.624;17.950;2023-08-08T09:53:27;35;28;
72908;PMS5003;61051;62.624;17.950;2023-08-08T09:55:56;32;29;
72908;PMS5003;61051;62.624;17.950;2023-08-08T09:58:26;26;24;
72908;PMS5003;61051;62.624;17.950;2023-08-08T10:03:23;30;27;
72908;PMS5003;61051;62.624;17.950;2023-08-08T10:05:53;33;28;
72908;PMS5003;61051;62.624;17.950;2023-08-08T10:08:22;30;28;
72908;PMS5003;61051;62.624;17.950;2023-08-08T10:10:51;26;24;
72908;PMS5003;61051;62.624;17.950;2023-08-08T10:13:21;28;27;
72908;PMS5003;61051;62.624;17.950;2023-08-08T10:15:50;27;27;
72908;PMS5003;61051;62.624;17.950;2023-08-08T10:18:20;33;26;
72908;PMS5003;61051;62.624;17.950;2023-08-08T10:20:50;33;25;
72908;PMS5003;61051;62.624;17.950;2023-08-08T10:23:19;35;29;
72908;PMS5003;61051;62.624;17.950;2023-08-08T10:25:50;29;26;
72908;PMS5003;61051;62.624;17.950;2023-08-08T10:28:20;23;22;
72908;PMS5003;61051;62.624;17.950;2023-08-08T10:30:51;27;24;
72908;PMS5003;61051;62.624;17.950;2023-08-08T10:33:22;22;22;
72908;PMS5003;61051;62.624;17.950;2023-08-08T10:35:54;33;25;
72908;PMS5003;61051;62.624;17.950;2023-08-08T10:38:27;22;20;
72908;PMS5003;61051;62.624;17.950;2023-08-08T10:41:10;18;18;
72908;PMS5003;61051;62.624;17.950;2023-08-08T10:43:47;21;19;
72908;PMS5003;61051;62.624;17.950;2023-08-08T10:46:22;16;16;
72908;PMS5003;61051;62.624;17.950;2023-08-08T10:48:52;19;18;
72908;PMS5003;61051;62.624;17.950;2023-08-08T10:51:22;24;17;
72908;PMS5003;61051;62.624;17.950;2023-08-08T10:53:51;21;14;
72908;PMS5003;61051;62.624;17.950;2023-08-08T10:56:20;15;15;
72908;PMS5003;61051;62.624;17.950;2023-08-08T10:58:50;11;9;
72908;PMS5003;61051;62.624;17.950;2023-08-08T11:01:18;4;3;
72908;PMS5003;61051;62.624;17.950;2023-08-08T11:03:48;6;2;
72908;PMS5003;61051;62.624;17.950;2023-08-08T11:06:17;1;1;
72908;PMS5003;61051;62.624;17.950;2023-08-08T11:08:47;2;0;
72908;PMS5003;61051;62.624;17.950;2023-08-08T11:11:16;0;0;
72908;PMS5003;61051;62.624;17.950;2023-08-08T11:13:45;3;2;
72908;PMS5003;61051;62.624;17.950;2023-08-08T11:16:14;0;0;
72908;PMS5003;61051;62.624;17.950;2023-08-08T11:18:43;3;1;
72908;PMS5003;61051;62.624;17.950;2023-08-08T11:21:12;1;0;
72908;PMS5003;61051;62.624;17.950;2023-08-08T11:23:44;2;1;
72908;PMS5003;61051;62.624;17.950;2023-08-08T11:26:16;1;0;
72908;PMS5003;61051;62.624;17.950;2023-08-08T11:28:49;2;1;
72908;PMS5003;61051;62.624;17.950;2023-08-08T11:31:19;0;0;
72908;PMS5003;61051;62.624;17.950;2023-08-08T11:33:48;0;0;
72908;PMS5003;61051;62.624;17.950;2023-08-08T11:36:18;1;1;
72908;PMS5003;61051;62.624;17.950;2023-08-08T11:38:48;2;2;
72908;PMS5003;61051;62.624;17.950;2023-08-08T11:41:19;3;0;
72908;PMS5003;61051;62.624;17.950;2023-08-08T11:43:50;2;0;
72908;PMS5003;61051;62.624;17.950;2023-08-08T11:46:22;0;0;
72908;PMS5003;61051;62.624;17.950;2023-08-08T11:48:51;1;0;
72908;PMS5003;61051;62.624;17.950;2023-08-08T11:51:19;0;0;
72908;PMS5003;61051;62.624;17.950;2023-08-08T11:53:49;1;1;
72908;PMS5003;61051;62.624;17.950;2023-08-08T11:56:19;1;1;
72908;PMS5003;61051;62.624;17.950;2023-08-08T11:58:49;0;0;
72908;PMS5003;61051;62.624;17.950;2023-08-08T12:01:19;1;1;
72908;PMS5003;61051;62.624;17.950;2023-08-08T12:03:48;0;0;
72908;PMS5003;61051;62.624;17.950;2023-08-08T12:06:16;0;0;
72908;PMS5003;61051;62.624;17.950;2023-08-08T12:08:46;0;0;
72908;PMS5003;61051;62.624;17.950;2023-08-08T12:11:15;1;0;
72908;PMS5003;61051;62.624;17.950;2023-08-08T12:13:45;3;0;
72908;PMS5003;61051;62.624;17.950;2023-08-08T12:16:13;1;0;
72908;PMS5003;61051;62.624;17.950;2023-08-08T12:18:42;1;1;
72908;PMS5003;61051;62.624;17.950;2023-08-08T12:21:12;1;0;
72908;PMS5003;61051;62.624;17.950;2023-08-08T12:23:41;1;0;
72908;PMS5003;61051;62.624;17.950;2023-08-08T12:26:09;4;1;
72908;PMS5003;61051;62.624;17.950;2023-08-08T12:28:39;0;0;
72908;PMS5003;61051;62.624;17.950;2023-08-08T12:31:07;0;0;
72908;PMS5003;61051;62.624;17.950;2023-08-08T12:33:35;1;1;
72908;PMS5003;61051;62.624;17.950;2023-08-08T12:36:03;2;2;
72908;PMS5003;61051;62.624;17.950;2023-08-08T12:38:32;2;0;
72908;PMS5003;61051;62.624;17.950;2023-08-08T12:41:01;1;1;
72908;PMS5003;61051;62.624;17.950;2023-08-08T12:43:30;1;1;
72908;PMS5003;61051;62.624;17.950;2023-08-08T12:45:58;4;3;
72908;PMS5003;61051;62.624;17.950;2023-08-08T12:48:26;2;1;
72908;PMS5003;61051;62.624;17.950;2023-08-08T12:50:54;1;1;
72908;PMS5003;61051;62.624;17.950;2023-08-08T12:53:22;4;1;
72908;PMS5003;61051;62.624;17.950;2023-08-08T12:55:50;3;1;
72908;PMS5003;61051;62.624;17.950;2023-08-08T12:58:18;1;1;
72908;PMS5003;61051;62.624;17.950;2023-08-08T13:00:46;9;8;
72908;PMS5003;61051;62.624;17.950;2023-08-08T13:03:14;1;1;
72908;PMS5003;61051;62.624;17.950;2023-08-08T13:05:43;3;1;
72908;PMS5003;61051;62.624;17.950;2023-08-08T13:08:12;1;1;
72908;PMS5003;61051;62.624;17.950;2023-08-08T13:10:41;3;1;
72908;PMS5003;61051;62.624;17.950;2023-08-08T13:13:09;2;1;
72908;PMS5003;61051;62.624;17.950;2023-08-08T13:15:37;2;2;
72908;PMS5003;61051;62.624;17.950;2023-08-08T13:18:05;0;0;
72908;PMS5003;61051;62.624;17.950;2023-08-08T13:20:34;1;0;
72908;PMS5003;61051;62.624;17.950;2023-08-08T13:23:03;1;1;
72908;PMS5003;61051;62.624;17.950;2023-08-08T13:25:32;1;1;
72908;PMS5003;61051;62.624;17.950;2023-08-08T13:28:00;2;1;
72908;PMS5003;61051;62.624;17.950;2023-08-08T13:30:28;2;0;
72908;PMS5003;61051;62.624;17.950;2023-08-08T13:32:56;1;1;
72908;PMS5003;61051;62.624;17.950;2023-08-08T13:35:24;3;2;
72908;PMS5003;61051;62.624;17.950;2023-08-08T13:37:52;1;1;
72908;PMS5003;61051;62.624;17.950;2023-08-08T13:40:20;2;2;
72908;PMS5003;61051;62.624;17.950;2023-08-08T13:42:48;3;2;
72908;PMS5003;61051;62.624;17.950;2023-08-08T13:45:17;4;0;
72908;PMS5003;61051;62.624;17.950;2023-08-08T13:47:44;1;1;
72908;PMS5003;61051;62.624;17.950;2023-08-08T13:50:13;0;0;
72908;PMS5003;61051;62.624;17.950;2023-08-08T13:52:42;0;0;
72908;PMS5003;61051;62.624;17.950;2023-08-08T13:55:11;2;2;
72908;PMS5003;61051;62.624;17.950;2023-08-08T13:57:40;1;1;
72908;PMS5003;61051;62.624;17.950;2023-08-08T14:00:09;2;1;
72908;PMS5003;61051;62.624;17.950;2023-08-08T14:02:38;1;1;
72908;PMS5003;61051;62.624;17.950;2023-08-08T14:05:07;3;1;
72908;PMS5003;61051;62.624;17.950;2023-08-08T14:07:36;5;3;
72908;PMS5003;61051;62.624;17.950;2023-08-08T14:10:05;0;0;
72908;PMS5003;61051;62.624;17.950;2023-08-08T14:12:34;2;1;
72908;PMS5003;61051;62.624;17.950;2023-08-08T14:15:02;0;0;
72908;PMS5003;61051;62.624;17.950;2023-08-08T14:17:32;2;2;
72908;PMS5003;61051;62.624;17.950;2023-08-08T14:20:01;2;0;
72908;PMS5003;61051;62.624;17.950;2023-08-08T14:22:29;1;1;
72908;PMS5003;61051;62.624;17.950;2023-08-08T14:24:57;1;1;
72908;PMS5003;61051;62.624;17.950;2023-08-08T14:27:25;2;2;
72908;PMS5003;61051;62.624;17.950;2023-08-08T14:29:53;1;1;
72908;PMS5003;61051;62.624;17.950;2023-08-08T14:32:21;7;2;
72908;PMS5003;61051;62.624;17.950;2023-08-08T14:34:50;9;3;
72908;PMS5003;61051;62.624;17.950;2023-08-08T14:37:18;3;2;
72908;PMS5003;61051;62.624;17.950;2023-08-08T14:39:46;2;2;
72908;PMS5003;61051;62.624;17.950;2023-08-08T14:42:16;5;1;
72908;PMS5003;61051;62.624;17.950;2023-08-08T14:44:44;3;3;
72908;PMS5003;61051;62.624;17.950;2023-08-08T14:47:13;4;1;
72908;PMS5003;61051;62.624;17.950;2023-08-08T14:49:42;4;1;
72908;PMS5003;61051;62.624;17.950;2023-08-08T14:52:10;1;1;
72908;PMS5003;61051;62.624;17.950;2023-08-08T14:54:40;2;0;
72908;PMS5003;61051;62.624;17.950;2023-08-08T14:57:08;1;1;
72908;PMS5003;61051;62.624;17.950;2023-08-08T14:59:36;0;0;
72908;PMS5003;61051;62.624;17.950;2023-08-08T15:02:04;0;0;
72908;PMS5003;61051;62.624;17.950;2023-08-08T15:04:32;3;2;
72908;PMS5003;61051;62.624;17.950;2023-08-08T15:07:00;2;2;
72908;PMS5003;61051;62.624;17.950;2023-08-08T15:09:28;3;1;
72908;PMS5003;61051;62.624;17.950;2023-08-08T15:11:56;2;1;
72908;PMS5003;61051;62.624;17.950;2023-08-08T15:14:24;1;1;
72908;PMS5003;61051;62.624;17.950;2023-08-08T15:16:52;3;3;
72908;PMS5003;61051;62.624;17.950;2023-08-08T15:19:20;3;3;
72908;PMS5003;61051;62.624;17.950;2023-08-08T15:21:48;5;2;
72908;PMS5003;61051;62.624;17.950;2023-08-08T15:24:16;0;0;
72908;PMS5003;61051;62.624;17.950;2023-08-08T15:26:44;3;1;
72908;PMS5003;61051;62.624;17.950;2023-08-08T15:29:13;4;1;
72908;PMS5003;61051;62.624;17.950;2023-08-08T15:31:42;3;1;
72908;PMS5003;61051;62.624;17.950;2023-08-08T15:34:11;4;2;
72908;PMS5003;61051;62.624;17.950;2023-08-08T15:36:40;2;2;
72908;PMS5003;61051;62.624;17.950;2023-08-08T15:39:08;3;1;
72908;PMS5003;61051;62.624;17.950;2023-08-08T15:41:36;2;2;
72908;PMS5003;61051;62.624;17.950;2023-08-08T15:44:04;2;1;
72908;PMS5003;61051;62.624;17.950;2023-08-08T15:46:34;0;0;
72908;PMS5003;61051;62.624;17.950;2023-08-08T15:49:03;0;0;
72908;PMS5003;61051;62.624;17.950;2023-08-08T15:51:33;3;3;
72908;PMS5003;61051;62.624;17.950;2023-08-08T15:54:02;0;0;
72908;PMS5003;61051;62.624;17.950;2023-08-08T15:56:32;1;1;
72908;PMS5003;61051;62.624;17.950;2023-08-08T15:58:59;2;2;
72908;PMS5003;61051;62.624;17.950;2023-08-08T16:03:17;4;1;
72908;PMS5003;61051;62.624;17.950;2023-08-08T16:05:45;2;2;
72908;PMS5003;61051;62.624;17.950;2023-08-08T16:08:13;3;2;
72908;PMS5003;61051;62.624;17.950;2023-08-08T16:10:41;2;1;
72908;PMS5003;61051;62.624;17.950;2023-08-08T16:13:10;12;1;
72908;PMS5003;61051;62.624;17.950;2023-08-08T16:15:38;3;0;
72908;PMS5003;61051;62.624;17.950;2023-08-08T16:18:06;1;0;
72908;PMS5003;61051;62.624;17.950;2023-08-08T16:20:35;1;1;
72908;PMS5003;61051;62.624;17.950;2023-08-08T16:23:03;2;1;
72908;PMS5003;61051;62.624;17.950;2023-08-08T16:25:31;2;2;
72908;PMS5003;61051;62.624;17.950;2023-08-08T16:27:59;3;1;
72908;PMS5003;61051;62.624;17.950;2023-08-08T16:30:27;1;1;